sensor_id;sensor_type;location;lat;lon;timestamp;temperature;humidity
26909;DHT22;14477;51.038;4.588;2023-02-23T00:01:57;11.40;99.90
26909;DHT22;14477;51.038;4.588;2023-02-23T00:04:26;11.30;99.90
26909;DHT22;14477;51.038;4.588;2023-02-23T00:06:52;11.30;99.90
26909;DHT22;14477;51.038;4.588;2023-02-23T00:09:17;11.30;99.90
26909;DHT22;14477;51.038;4.588;2023-02-23T00:12:00;11.30;99.90
26909;DHT22;14477;51.038;4.588;2023-02-23T00:14:33;11.30;99.90
26909;DHT22;14477;51.038;4.588;2023-02-23T00:16:59;11.30;99.90
26909;DHT22;14477;51.038;4.588;2023-02-23T00:19:25;11.30;99.90
26909;DHT22;14477;51.038;4.588;2023-02-23T00:21:52;11.30;99.90
26909;DHT22;14477;51.038;4.588;2023-02-23T00:24:18;11.30;99.90
26909;DHT22;14477;51.038;4.588;2023-02-23T00:26:46;11.30;99.90
26909;DHT22;14477;51.038;4.588;2023-02-23T00:29:15;11.30;99.90
26909;DHT22;14477;51.038;4.588;2023-02-23T00:31:43;11.30;99.90
26909;DHT22;14477;51.038;4.588;2023-02-23T00:34:10;11.30;99.90
26909;DHT22;14477;51.038;4.588;2023-02-23T00:36:37;11.30;99.90
26909;DHT22;14477;51.038;4.588;2023-02-23T00:39:06;11.30;99.90
26909;DHT22;14477;51.038;4.588;2023-02-23T00:41:47;11.30;99.90
26909;DHT22;14477;51.038;4.588;2023-02-23T00:44:14;11.30;99.90
26909;DHT22;14477;51.038;4.588;2023-02-23T00:46:40;11.30;99.90
26909;DHT22;14477;51.038;4.588;2023-02-23T00:49:08;11.30;99.90
26909;DHT22;14477;51.038;4.588;2023-02-23T00:51:35;11.30;99.90
26909;DHT22;14477;51.038;4.588;2023-02-23T00:54:02;11.30;99.90
26909;DHT22;14477;51.038;4.588;2023-02-23T00:56:28;11.30;99.90
26909;DHT22;14477;51.038;4.588;2023-02-23T00:58:54;11.30;99.90
26909;DHT22;14477;51.038;4.588;2023-02-23T01:01:21;11.30;99.90
26909;DHT22;14477;51.038;4.588;2023-02-23T01:03:47;11.20;99.90
26909;DHT22;14477;51.038;4.588;2023-02-23T01:06:16;11.20;99.90
26909;DHT22;14477;51.038;4.588;2023-02-23T01:08:45;11.20;99.90
26909;DHT22;14477;51.038;4.588;2023-02-23T01:11:18;11.20;99.90
26909;DHT22;14477;51.038;4.588;2023-02-23T01:13:50;11.20;99.90
26909;DHT22;14477;51.038;4.588;2023-02-23T01:16:18;11.20;99.90
26909;DHT22;14477;51.038;4.588;2023-02-23T01:18:45;11.20;99.90
26909;DHT22;14477;51.038;4.588;2023-02-23T01:21:22;11.20;99.90
26909;DHT22;14477;51.038;4.588;2023-02-23T01:23:50;11.20;99.90
26909;DHT22;14477;51.038;4.588;2023-02-23T01:26:17;11.20;99.90
26909;DHT22;14477;51.038;4.588;2023-02-23T01:28:47;11.20;99.90
26909;DHT22;14477;51.038;4.588;2023-02-23T01:31:13;11.20;99.90
26909;DHT22;14477;51.038;4.588;2023-02-23T01:33:40;11.20;99.90
26909;DHT22;14477;51.038;4.588;2023-02-23T01:36:07;11.20;99.90
26909;DHT22;14477;51.038;4.588;2023-02-23T01:38:33;11.20;99.90
26909;DHT22;14477;51.038;4.588;2023-02-23T01:40:59;11.20;99.90
26909;DHT22;14477;51.038;4.588;2023-02-23T01:43:25;11.20;99.90
26909;DHT22;14477;51.038;4.588;2023-02-23T01:45:55;11.10;99.90
26909;DHT22;14477;51.038;4.588;2023-02-23T01:48:31;11.10;99.90
26909;DHT22;14477;51.038;4.588;2023-02-23T01:51:09;11.10;99.90
26909;DHT22;14477;51.038;4.588;2023-02-23T01:53:39;11.10;99.90
26909;DHT22;14477;51.038;4.588;2023-02-23T01:56:17;11.10;99.90
26909;DHT22;14477;51.038;4.588;2023-02-23T01:58:48;11.10;99.90
26909;DHT22;14477;51.038;4.588;2023-02-23T02:01:18;11.10;99.90
26909;DHT22;14477;51.038;4.588;2023-02-23T02:03:57;11.10;99.90
26909;DHT22;14477;51.038;4.588;2023-02-23T02:06:24;11.10;99.90
26909;DHT22;14477;51.038;4.588;2023-02-23T02:08:55;11.10;99.90
26909;DHT22;14477;51.038;4.588;2023-02-23T02:11:22;11.10;99.90
26909;DHT22;14477;51.038;4.588;2023-02-23T02:30:46;11.10;99.90
26909;DHT22;14477;51.038;4.588;2023-02-23T02:41:46;11.10;99.90
26909;DHT22;14477;51.038;4.588;2023-02-23T02:47:10;11.00;99.90
26909;DHT22;14477;51.038;4.588;2023-02-23T02:49:49;11.10;99.90
26909;DHT22;14477;51.038;4.588;2023-02-23T02:54:51;11.10;99.90
26909;DHT22;14477;51.038;4.588;2023-02-23T02:57:20;11.00;99.90
26909;DHT22;14477;51.038;4.588;2023-02-23T02:59:48;11.10;99.90
26909;DHT22;14477;51.038;4.588;2023-02-23T03:02:38;11.10;99.90
26909;DHT22;14477;51.038;4.588;2023-02-23T03:05:34;11.10;99.90
26909;DHT22;14477;51.038;4.588;2023-02-23T03:11:16;11.10;99.90
26909;DHT22;14477;51.038;4.588;2023-02-23T03:19:58;11.00;99.90
26909;DHT22;14477;51.038;4.588;2023-02-23T03:22:50;11.00;99.90
26909;DHT22;14477;51.038;4.588;2023-02-23T03:29:01;11.00;99.90
26909;DHT22;14477;51.038;4.588;2023-02-23T03:34:53;10.90;99.90
26909;DHT22;14477;51.038;4.588;2023-02-23T03:37:49;10.90;99.90
26909;DHT22;14477;51.038;4.588;2023-02-23T03:40:38;10.90;99.90
26909;DHT22;14477;51.038;4.588;2023-02-23T03:43:31;10.90;99.90
26909;DHT22;14477;51.038;4.588;2023-02-23T03:46:18;10.90;99.90
26909;DHT22;14477;51.038;4.588;2023-02-23T03:49:04;10.90;99.90
26909;DHT22;14477;51.038;4.588;2023-02-23T03:51:54;10.80;99.90
26909;DHT22;14477;51.038;4.588;2023-02-23T03:54:44;10.80;99.90
26909;DHT22;14477;51.038;4.588;2023-02-23T03:57:33;10.80;99.90
26909;DHT22;14477;51.038;4.588;2023-02-23T04:00:24;10.80;99.90
26909;DHT22;14477;51.038;4.588;2023-02-23T04:03:12;10.80;99.90
26909;DHT22;14477;51.038;4.588;2023-02-23T04:05:59;10.80;99.90
26909;DHT22;14477;51.038;4.588;2023-02-23T04:08:46;10.70;99.90
26909;DHT22;14477;51.038;4.588;2023-02-23T04:17:22;10.70;99.90
26909;DHT22;14477;51.038;4.588;2023-02-23T04:19:54;10.70;99.90
26909;DHT22;14477;51.038;4.588;2023-02-23T04:22:21;10.70;99.90
26909;DHT22;14477;51.038;4.588;2023-02-23T04:24:47;10.70;99.90
26909;DHT22;14477;51.038;4.588;2023-02-23T04:27:13;10.70;99.90
26909;DHT22;14477;51.038;4.588;2023-02-23T04:29:39;10.70;99.90
26909;DHT22;14477;51.038;4.588;2023-02-23T04:32:06;10.70;99.90
26909;DHT22;14477;51.038;4.588;2023-02-23T04:34:32;10.70;99.90
26909;DHT22;14477;51.038;4.588;2023-02-23T04:36:58;10.70;99.90
26909;DHT22;14477;51.038;4.588;2023-02-23T04:39:24;10.70;99.90
26909;DHT22;14477;51.038;4.588;2023-02-23T04:41:50;10.70;99.90
26909;DHT22;14477;51.038;4.588;2023-02-23T04:44:16;10.70;99.90
26909;DHT22;14477;51.038;4.588;2023-02-23T04:46:42;10.60;99.90
26909;DHT22;14477;51.038;4.588;2023-02-23T04:49:07;10.60;99.90
26909;DHT22;14477;51.038;4.588;2023-02-23T04:51:33;10.60;99.90
26909;DHT22;14477;51.038;4.588;2023-02-23T04:54:01;10.60;99.90
26909;DHT22;14477;51.038;4.588;2023-02-23T04:56:28;10.60;99.90
26909;DHT22;14477;51.038;4.588;2023-02-23T04:58:53;10.70;99.90
26909;DHT22;14477;51.038;4.588;2023-02-23T05:01:19;10.60;99.90
26909;DHT22;14477;51.038;4.588;2023-02-23T05:03:48;10.60;99.90
26909;DHT22;14477;51.038;4.588;2023-02-23T05:06:15;10.60;99.90
26909;DHT22;14477;51.038;4.588;2023-02-23T05:08:41;10.60;99.90
26909;DHT22;14477;51.038;4.588;2023-02-23T05:11:07;10.70;99.90
26909;DHT22;14477;51.038;4.588;2023-02-23T05:13:33;10.60;99.90
26909;DHT22;14477;51.038;4.588;2023-02-23T05:15:59;10.60;99.90
26909;DHT22;14477;51.038;4.588;2023-02-23T05:18:25;10.60;99.90
26909;DHT22;14477;51.038;4.588;2023-02-23T05:20:52;10.70;99.90
26909;DHT22;14477;51.038;4.588;2023-02-23T05:23:19;10.60;99.90
26909;DHT22;14477;51.038;4.588;2023-02-23T05:25:46;10.60;99.90
26909;DHT22;14477;51.038;4.588;2023-02-23T05:28:12;10.70;99.90
26909;DHT22;14477;51.038;4.588;2023-02-23T05:30:38;10.60;99.90
26909;DHT22;14477;51.038;4.588;2023-02-23T05:33:04;10.60;99.90
26909;DHT22;14477;51.038;4.588;2023-02-23T05:35:29;10.60;99.90
26909;DHT22;14477;51.038;4.588;2023-02-23T05:37:55;10.60;99.90
26909;DHT22;14477;51.038;4.588;2023-02-23T05:40:21;10.60;99.90
26909;DHT22;14477;51.038;4.588;2023-02-23T05:42:47;10.60;99.90
26909;DHT22;14477;51.038;4.588;2023-02-23T05:45:12;10.60;99.90
26909;DHT22;14477;51.038;4.588;2023-02-23T05:47:39;10.60;99.90
26909;DHT22;14477;51.038;4.588;2023-02-23T05:50:06;10.50;99.90
26909;DHT22;14477;51.038;4.588;2023-02-23T05:52:37;10.60;99.90
26909;DHT22;14477;51.038;4.588;2023-02-23T05:55:06;10.50;99.90
26909;DHT22;14477;51.038;4.588;2023-02-23T05:57:32;10.50;99.90
26909;DHT22;14477;51.038;4.588;2023-02-23T05:59:57;10.50;99.90
26909;DHT22;14477;51.038;4.588;2023-02-23T06:02:23;10.50;99.90
26909;DHT22;14477;51.038;4.588;2023-02-23T06:04:49;10.50;99.90
26909;DHT22;14477;51.038;4.588;2023-02-23T06:07:15;10.50;99.90
26909;DHT22;14477;51.038;4.588;2023-02-23T06:09:41;10.50;99.90
26909;DHT22;14477;51.038;4.588;2023-02-23T06:12:07;10.50;99.90
26909;DHT22;14477;51.038;4.588;2023-02-23T06:14:33;10.50;99.90
26909;DHT22;14477;51.038;4.588;2023-02-23T06:17:00;10.50;99.90
26909;DHT22;14477;51.038;4.588;2023-02-23T06:19:25;10.50;99.90
26909;DHT22;14477;51.038;4.588;2023-02-23T06:21:51;10.50;99.90
26909;DHT22;14477;51.038;4.588;2023-02-23T06:24:18;10.50;99.90
26909;DHT22;14477;51.038;4.588;2023-02-23T06:26:44;10.50;99.90
26909;DHT22;14477;51.038;4.588;2023-02-23T06:29:10;10.50;99.90
26909;DHT22;14477;51.038;4.588;2023-02-23T06:31:37;10.50;99.90
26909;DHT22;14477;51.038;4.588;2023-02-23T06:34:03;10.50;99.90
26909;DHT22;14477;51.038;4.588;2023-02-23T06:36:29;10.50;99.90
26909;DHT22;14477;51.038;4.588;2023-02-23T06:38:56;10.50;99.90
26909;DHT22;14477;51.038;4.588;2023-02-23T06:41:23;10.50;99.90
26909;DHT22;14477;51.038;4.588;2023-02-23T06:43:49;10.50;99.90
26909;DHT22;14477;51.038;4.588;2023-02-23T06:46:15;10.50;99.90
26909;DHT22;14477;51.038;4.588;2023-02-23T06:48:41;10.50;99.90
26909;DHT22;14477;51.038;4.588;2023-02-23T06:51:07;10.50;99.90
26909;DHT22;14477;51.038;4.588;2023-02-23T06:53:33;10.50;99.90
26909;DHT22;14477;51.038;4.588;2023-02-23T06:55:59;10.50;99.90
26909;DHT22;14477;51.038;4.588;2023-02-23T06:58:25;10.50;99.90
26909;DHT22;14477;51.038;4.588;2023-02-23T07:00:51;10.50;99.90
26909;DHT22;14477;51.038;4.588;2023-02-23T07:03:18;10.50;99.90
26909;DHT22;14477;51.038;4.588;2023-02-23T07:05:44;10.50;99.90
26909;DHT22;14477;51.038;4.588;2023-02-23T07:08:10;10.50;99.90
26909;DHT22;14477;51.038;4.588;2023-02-23T07:10:36;10.50;99.90
26909;DHT22;14477;51.038;4.588;2023-02-23T07:13:02;10.50;99.90
26909;DHT22;14477;51.038;4.588;2023-02-23T07:15:28;10.50;99.90
26909;DHT22;14477;51.038;4.588;2023-02-23T07:17:53;10.50;99.90
26909;DHT22;14477;51.038;4.588;2023-02-23T07:20:19;10.60;99.90
26909;DHT22;14477;51.038;4.588;2023-02-23T07:22:45;10.60;99.90
26909;DHT22;14477;51.038;4.588;2023-02-23T07:25:11;10.60;99.90
26909;DHT22;14477;51.038;4.588;2023-02-23T07:27:37;10.60;99.90
26909;DHT22;14477;51.038;4.588;2023-02-23T07:30:03;10.60;99.90
26909;DHT22;14477;51.038;4.588;2023-02-23T07:32:29;10.60;99.90
26909;DHT22;14477;51.038;4.588;2023-02-23T07:34:55;10.60;99.90
26909;DHT22;14477;51.038;4.588;2023-02-23T07:37:21;10.60;99.90
26909;DHT22;14477;51.038;4.588;2023-02-23T07:39:46;10.70;99.90
26909;DHT22;14477;51.038;4.588;2023-02-23T07:42:12;10.60;99.90
26909;DHT22;14477;51.038;4.588;2023-02-23T07:44:39;10.70;99.90
26909;DHT22;14477;51.038;4.588;2023-02-23T07:47:05;10.70;99.90
26909;DHT22;14477;51.038;4.588;2023-02-23T07:49:31;10.70;99.90
26909;DHT22;14477;51.038;4.588;2023-02-23T07:51:57;10.70;99.90
26909;DHT22;14477;51.038;4.588;2023-02-23T07:54:23;10.70;99.90
26909;DHT22;14477;51.038;4.588;2023-02-23T07:56:51;10.80;99.90
26909;DHT22;14477;51.038;4.588;2023-02-23T07:59:17;10.80;99.90
26909;DHT22;14477;51.038;4.588;2023-02-23T08:01:43;10.80;99.90
26909;DHT22;14477;51.038;4.588;2023-02-23T08:04:09;10.80;99.90
26909;DHT22;14477;51.038;4.588;2023-02-23T08:06:35;10.80;99.90
26909;DHT22;14477;51.038;4.588;2023-02-23T08:09:02;10.80;99.90
26909;DHT22;14477;51.038;4.588;2023-02-23T08:11:28;10.80;99.90
26909;DHT22;14477;51.038;4.588;2023-02-23T08:13:55;10.80;99.90
26909;DHT22;14477;51.038;4.588;2023-02-23T08:16:33;10.80;99.90
26909;DHT22;14477;51.038;4.588;2023-02-23T08:18:59;10.90;99.90
26909;DHT22;14477;51.038;4.588;2023-02-23T08:21:26;10.90;99.90
26909;DHT22;14477;51.038;4.588;2023-02-23T08:23:54;10.90;99.90
26909;DHT22;14477;51.038;4.588;2023-02-23T08:26:21;10.90;99.90
26909;DHT22;14477;51.038;4.588;2023-02-23T08:28:48;11.00;99.90
26909;DHT22;14477;51.038;4.588;2023-02-23T08:31:14;11.00;99.90
26909;DHT22;14477;51.038;4.588;2023-02-23T08:33:43;11.10;99.90
26909;DHT22;14477;51.038;4.588;2023-02-23T08:36:09;11.10;99.90
26909;DHT22;14477;51.038;4.588;2023-02-23T08:38:35;11.10;99.90
26909;DHT22;14477;51.038;4.588;2023-02-23T08:41:02;11.20;99.90
26909;DHT22;14477;51.038;4.588;2023-02-23T08:43:28;11.20;99.90
26909;DHT22;14477;51.038;4.588;2023-02-23T08:45:54;11.20;99.90
26909;DHT22;14477;51.038;4.588;2023-02-23T08:48:20;11.20;99.90
26909;DHT22;14477;51.038;4.588;2023-02-23T08:50:49;11.30;99.90
26909;DHT22;14477;51.038;4.588;2023-02-23T08:53:16;11.30;99.90
26909;DHT22;14477;51.038;4.588;2023-02-23T08:55:42;11.30;99.90
26909;DHT22;14477;51.038;4.588;2023-02-23T08:58:08;11.40;99.90
26909;DHT22;14477;51.038;4.588;2023-02-23T09:00:36;11.40;99.90
26909;DHT22;14477;51.038;4.588;2023-02-23T09:03:03;11.50;99.90
26909;DHT22;14477;51.038;4.588;2023-02-23T09:05:30;11.60;99.90
26909;DHT22;14477;51.038;4.588;2023-02-23T09:07:56;11.70;99.90
26909;DHT22;14477;51.038;4.588;2023-02-23T09:10:22;11.70;99.90
26909;DHT22;14477;51.038;4.588;2023-02-23T09:12:53;11.80;99.90
26909;DHT22;14477;51.038;4.588;2023-02-23T09:15:20;11.80;99.90
26909;DHT22;14477;51.038;4.588;2023-02-23T09:17:46;11.90;99.90
26909;DHT22;14477;51.038;4.588;2023-02-23T09:20:15;12.00;99.90
26909;DHT22;14477;51.038;4.588;2023-02-23T09:22:41;12.00;99.90
26909;DHT22;14477;51.038;4.588;2023-02-23T09:25:17;12.00;99.90
26909;DHT22;14477;51.038;4.588;2023-02-23T09:27:47;12.10;99.90
26909;DHT22;14477;51.038;4.588;2023-02-23T09:30:14;12.20;99.90
26909;DHT22;14477;51.038;4.588;2023-02-23T09:32:46;12.30;99.90
26909;DHT22;14477;51.038;4.588;2023-02-23T09:35:14;12.30;99.90
26909;DHT22;14477;51.038;4.588;2023-02-23T09:37:46;12.30;99.90
26909;DHT22;14477;51.038;4.588;2023-02-23T09:40:21;12.40;99.90
26909;DHT22;14477;51.038;4.588;2023-02-23T09:42:59;12.40;99.90
26909;DHT22;14477;51.038;4.588;2023-02-23T09:48:09;12.40;99.90
26909;DHT22;14477;51.038;4.588;2023-02-23T09:50:37;12.50;99.90
26909;DHT22;14477;51.038;4.588;2023-02-23T09:55:47;12.50;99.90
26909;DHT22;14477;51.038;4.588;2023-02-23T09:58:30;12.40;99.90
26909;DHT22;14477;51.038;4.588;2023-02-23T10:06:30;12.60;99.90
26909;DHT22;14477;51.038;4.588;2023-02-23T10:09:05;12.60;99.90
26909;DHT22;14477;51.038;4.588;2023-02-23T10:14:34;12.60;99.90
26909;DHT22;14477;51.038;4.588;2023-02-23T10:19:55;12.70;99.90
26909;DHT22;14477;51.038;4.588;2023-02-23T10:22:24;12.70;99.90
26909;DHT22;14477;51.038;4.588;2023-02-23T10:25:12;12.70;99.90
26909;DHT22;14477;51.038;4.588;2023-02-23T10:27:45;12.80;99.90
26909;DHT22;14477;51.038;4.588;2023-02-23T10:30:24;12.80;99.90
26909;DHT22;14477;51.038;4.588;2023-02-23T10:33:29;12.90;99.90
26909;DHT22;14477;51.038;4.588;2023-02-23T10:35:44;13.00;99.90
26909;DHT22;14477;51.038;4.588;2023-02-23T10:38:15;13.10;99.90
26909;DHT22;14477;51.038;4.588;2023-02-23T10:40:49;13.10;99.90
26909;DHT22;14477;51.038;4.588;2023-02-23T10:43:15;13.20;99.90
26909;DHT22;14477;51.038;4.588;2023-02-23T10:45:47;13.20;99.90
26909;DHT22;14477;51.038;4.588;2023-02-23T10:48:37;13.20;99.90
26909;DHT22;14477;51.038;4.588;2023-02-23T10:51:16;13.30;99.90
26909;DHT22;14477;51.038;4.588;2023-02-23T10:53:43;13.30;99.90
26909;DHT22;14477;51.038;4.588;2023-02-23T10:56:13;13.30;99.90
26909;DHT22;14477;51.038;4.588;2023-02-23T10:58:51;13.30;99.90
26909;DHT22;14477;51.038;4.588;2023-02-23T11:01:40;13.20;99.90
26909;DHT22;14477;51.038;4.588;2023-02-23T11:04:28;13.20;99.90
26909;DHT22;14477;51.038;4.588;2023-02-23T11:07:23;13.20;99.90
26909;DHT22;14477;51.038;4.588;2023-02-23T11:09:49;13.20;99.90
26909;DHT22;14477;51.038;4.588;2023-02-23T11:14:54;13.10;99.90
26909;DHT22;14477;51.038;4.588;2023-02-23T11:17:32;13.20;99.90
26909;DHT22;14477;51.038;4.588;2023-02-23T11:20:00;13.20;99.90
26909;DHT22;14477;51.038;4.588;2023-02-23T11:22:30;13.20;99.90
26909;DHT22;14477;51.038;4.588;2023-02-23T11:24:57;13.20;99.90
26909;DHT22;14477;51.038;4.588;2023-02-23T11:27:25;13.20;99.90
26909;DHT22;14477;51.038;4.588;2023-02-23T11:29:54;13.30;99.90
26909;DHT22;14477;51.038;4.588;2023-02-23T11:32:30;13.30;99.90
26909;DHT22;14477;51.038;4.588;2023-02-23T11:37:45;13.40;99.90
26909;DHT22;14477;51.038;4.588;2023-02-23T11:40:31;13.40;99.90
26909;DHT22;14477;51.038;4.588;2023-02-23T11:45:44;13.60;99.90
26909;DHT22;14477;51.038;4.588;2023-02-23T11:48:32;13.60;99.90
26909;DHT22;14477;51.038;4.588;2023-02-23T11:50:59;13.70;99.90
26909;DHT22;14477;51.038;4.588;2023-02-23T11:53:37;13.70;99.90
26909;DHT22;14477;51.038;4.588;2023-02-23T11:56:06;13.80;99.90
26909;DHT22;14477;51.038;4.588;2023-02-23T11:58:42;13.80;99.90
26909;DHT22;14477;51.038;4.588;2023-02-23T12:01:11;13.90;99.90
26909;DHT22;14477;51.038;4.588;2023-02-23T12:03:51;13.90;99.90
26909;DHT22;14477;51.038;4.588;2023-02-23T12:06:30;14.00;99.90
26909;DHT22;14477;51.038;4.588;2023-02-23T12:09:03;14.10;99.90
26909;DHT22;14477;51.038;4.588;2023-02-23T12:11:33;14.20;99.90
26909;DHT22;14477;51.038;4.588;2023-02-23T12:14:50;14.20;99.90
26909;DHT22;14477;51.038;4.588;2023-02-23T12:22:32;14.40;99.90
26909;DHT22;14477;51.038;4.588;2023-02-23T12:25:03;14.50;99.90
26909;DHT22;14477;51.038;4.588;2023-02-23T12:27:45;14.50;99.90
26909;DHT22;14477;51.038;4.588;2023-02-23T12:35:53;14.60;99.90
26909;DHT22;14477;51.038;4.588;2023-02-23T12:41:04;14.70;99.90
26909;DHT22;14477;51.038;4.588;2023-02-23T12:43:54;14.80;99.90
26909;DHT22;14477;51.038;4.588;2023-02-23T12:49:15;14.80;99.90
26909;DHT22;14477;51.038;4.588;2023-02-23T12:54:13;14.80;99.90
26909;DHT22;14477;51.038;4.588;2023-02-23T13:05:03;14.60;99.90
26909;DHT22;14477;51.038;4.588;2023-02-23T13:10:31;14.40;99.90
26909;DHT22;14477;51.038;4.588;2023-02-23T13:13:21;14.40;99.90
26909;DHT22;14477;51.038;4.588;2023-02-23T13:16:04;14.20;99.90
26909;DHT22;14477;51.038;4.588;2023-02-23T13:18:37;14.10;99.90
26909;DHT22;14477;51.038;4.588;2023-02-23T13:24:00;13.90;99.90
26909;DHT22;14477;51.038;4.588;2023-02-23T13:29:37;13.80;99.90
26909;DHT22;14477;51.038;4.588;2023-02-23T13:32:09;13.80;99.90
26909;DHT22;14477;51.038;4.588;2023-02-23T13:34:41;13.70;99.90
26909;DHT22;14477;51.038;4.588;2023-02-23T13:37:09;13.70;99.90
26909;DHT22;14477;51.038;4.588;2023-02-23T13:40:00;13.60;99.90
26909;DHT22;14477;51.038;4.588;2023-02-23T13:42:39;13.60;99.90
26909;DHT22;14477;51.038;4.588;2023-02-23T13:45:29;13.60;99.90
26909;DHT22;14477;51.038;4.588;2023-02-23T13:48:31;13.60;99.90
26909;DHT22;14477;51.038;4.588;2023-02-23T13:51:22;13.50;99.90
26909;DHT22;14477;51.038;4.588;2023-02-23T13:56:28;13.40;99.90
26909;DHT22;14477;51.038;4.588;2023-02-23T13:59:00;13.40;99.90
26909;DHT22;14477;51.038;4.588;2023-02-23T14:03:54;13.30;99.90
26909;DHT22;14477;51.038;4.588;2023-02-23T14:06:23;13.30;99.90
26909;DHT22;14477;51.038;4.588;2023-02-23T14:08:54;13.30;99.90
26909;DHT22;14477;51.038;4.588;2023-02-23T14:11:28;13.40;99.90
26909;DHT22;14477;51.038;4.588;2023-02-23T14:14:00;13.40;99.90
26909;DHT22;14477;51.038;4.588;2023-02-23T14:16:26;13.40;99.90
26909;DHT22;14477;51.038;4.588;2023-02-23T14:19:29;13.40;99.90
26909;DHT22;14477;51.038;4.588;2023-02-23T14:22:02;13.40;99.90
26909;DHT22;14477;51.038;4.588;2023-02-23T14:24:30;13.40;99.90
26909;DHT22;14477;51.038;4.588;2023-02-23T14:32:42;13.40;99.90
26909;DHT22;14477;51.038;4.588;2023-02-23T14:35:37;13.40;99.90
26909;DHT22;14477;51.038;4.588;2023-02-23T14:38:31;13.40;99.90
26909;DHT22;14477;51.038;4.588;2023-02-23T14:41:00;13.40;99.90
26909;DHT22;14477;51.038;4.588;2023-02-23T14:46:16;13.40;99.90
26909;DHT22;14477;51.038;4.588;2023-02-23T14:48:44;13.40;99.90
26909;DHT22;14477;51.038;4.588;2023-02-23T14:51:22;13.40;99.90
26909;DHT22;14477;51.038;4.588;2023-02-23T14:53:49;13.40;99.90
26909;DHT22;14477;51.038;4.588;2023-02-23T14:56:22;13.50;99.90
26909;DHT22;14477;51.038;4.588;2023-02-23T14:58:51;13.50;99.90
26909;DHT22;14477;51.038;4.588;2023-02-23T15:01:37;13.50;99.90
26909;DHT22;14477;51.038;4.588;2023-02-23T15:04:09;13.60;99.90
26909;DHT22;14477;51.038;4.588;2023-02-23T15:06:37;13.60;99.90
26909;DHT22;14477;51.038;4.588;2023-02-23T15:09:03;13.60;99.90
26909;DHT22;14477;51.038;4.588;2023-02-23T15:11:29;13.60;99.90
26909;DHT22;14477;51.038;4.588;2023-02-23T15:13:56;13.70;99.90
26909;DHT22;14477;51.038;4.588;2023-02-23T15:16:32;13.70;99.90
26909;DHT22;14477;51.038;4.588;2023-02-23T15:19:01;13.70;99.90
26909;DHT22;14477;51.038;4.588;2023-02-23T15:21:28;13.70;99.90
26909;DHT22;14477;51.038;4.588;2023-02-23T15:24:09;13.80;99.90
26909;DHT22;14477;51.038;4.588;2023-02-23T15:26:38;13.80;99.90
26909;DHT22;14477;51.038;4.588;2023-02-23T15:31:34;13.80;99.90
26909;DHT22;14477;51.038;4.588;2023-02-23T15:34:01;13.80;99.90
26909;DHT22;14477;51.038;4.588;2023-02-23T15:36:31;13.80;99.90
26909;DHT22;14477;51.038;4.588;2023-02-23T15:39:02;13.80;99.90
26909;DHT22;14477;51.038;4.588;2023-02-23T15:41:32;13.80;99.90
26909;DHT22;14477;51.038;4.588;2023-02-23T15:46:41;13.70;99.90
26909;DHT22;14477;51.038;4.588;2023-02-23T15:49:12;13.70;99.90
26909;DHT22;14477;51.038;4.588;2023-02-23T15:51:47;13.60;99.90
26909;DHT22;14477;51.038;4.588;2023-02-23T15:54:22;13.60;99.90
26909;DHT22;14477;51.038;4.588;2023-02-23T15:56:55;13.50;99.90
26909;DHT22;14477;51.038;4.588;2023-02-23T15:59:34;13.50;99.90
26909;DHT22;14477;51.038;4.588;2023-02-23T16:02:03;13.30;99.90
26909;DHT22;14477;51.038;4.588;2023-02-23T16:04:38;13.30;99.90
26909;DHT22;14477;51.038;4.588;2023-02-23T16:12:36;13.20;99.90
26909;DHT22;14477;51.038;4.588;2023-02-23T16:15:26;13.10;99.90
26909;DHT22;14477;51.038;4.588;2023-02-23T16:18:16;13.00;99.90
26909;DHT22;14477;51.038;4.588;2023-02-23T16:20:51;13.00;99.90
26909;DHT22;14477;51.038;4.588;2023-02-23T16:23:25;12.90;99.90
26909;DHT22;14477;51.038;4.588;2023-02-23T16:26:00;12.90;99.90
26909;DHT22;14477;51.038;4.588;2023-02-23T16:28:32;12.90;99.90
26909;DHT22;14477;51.038;4.588;2023-02-23T16:31:04;12.80;99.90
26909;DHT22;14477;51.038;4.588;2023-02-23T16:36:13;12.70;99.90
26909;DHT22;14477;51.038;4.588;2023-02-23T16:41:19;12.60;99.90
26909;DHT22;14477;51.038;4.588;2023-02-23T16:43:47;12.60;99.90
26909;DHT22;14477;51.038;4.588;2023-02-23T16:46:17;12.50;99.90
26909;DHT22;14477;51.038;4.588;2023-02-23T16:48:43;12.50;99.90
26909;DHT22;14477;51.038;4.588;2023-02-23T16:51:17;12.40;99.90
26909;DHT22;14477;51.038;4.588;2023-02-23T16:53:44;12.30;99.90
26909;DHT22;14477;51.038;4.588;2023-02-23T16:56:13;12.30;99.90
26909;DHT22;14477;51.038;4.588;2023-02-23T16:58:43;12.30;99.90
26909;DHT22;14477;51.038;4.588;2023-02-23T17:01:12;12.20;99.90
26909;DHT22;14477;51.038;4.588;2023-02-23T17:03:39;12.20;99.90
26909;DHT22;14477;51.038;4.588;2023-02-23T17:06:05;12.20;99.90
26909;DHT22;14477;51.038;4.588;2023-02-23T17:08:31;12.20;99.90
26909;DHT22;14477;51.038;4.588;2023-02-23T17:11:01;12.20;99.90
26909;DHT22;14477;51.038;4.588;2023-02-23T17:13:27;12.20;99.90
26909;DHT22;14477;51.038;4.588;2023-02-23T17:15:57;12.10;99.90
26909;DHT22;14477;51.038;4.588;2023-02-23T17:18:26;12.10;99.90
26909;DHT22;14477;51.038;4.588;2023-02-23T17:20:53;12.10;99.90
26909;DHT22;14477;51.038;4.588;2023-02-23T17:23:22;12.10;99.90
26909;DHT22;14477;51.038;4.588;2023-02-23T17:25:50;12.20;99.90
26909;DHT22;14477;51.038;4.588;2023-02-23T17:28:16;12.10;99.90
26909;DHT22;14477;51.038;4.588;2023-02-23T17:30:42;12.10;99.90
26909;DHT22;14477;51.038;4.588;2023-02-23T17:33:09;12.10;99.90
26909;DHT22;14477;51.038;4.588;2023-02-23T17:35:35;12.10;99.90
26909;DHT22;14477;51.038;4.588;2023-02-23T17:38:05;12.10;99.90
26909;DHT22;14477;51.038;4.588;2023-02-23T17:40:32;12.10;99.90
26909;DHT22;14477;51.038;4.588;2023-02-23T17:43:03;12.10;99.90
26909;DHT22;14477;51.038;4.588;2023-02-23T17:45:31;12.10;99.90
26909;DHT22;14477;51.038;4.588;2023-02-23T17:47:57;12.10;99.90
26909;DHT22;14477;51.038;4.588;2023-02-23T17:50:24;12.00;99.90
26909;DHT22;14477;51.038;4.588;2023-02-23T17:52:51;12.00;99.90
26909;DHT22;14477;51.038;4.588;2023-02-23T17:55:19;12.00;99.90
26909;DHT22;14477;51.038;4.588;2023-02-23T17:57:45;12.00;99.90
26909;DHT22;14477;51.038;4.588;2023-02-23T18:00:13;12.00;99.90
26909;DHT22;14477;51.038;4.588;2023-02-23T18:02:39;12.00;99.90
26909;DHT22;14477;51.038;4.588;2023-02-23T18:05:06;12.00;99.90
26909;DHT22;14477;51.038;4.588;2023-02-23T18:07:32;12.00;99.90
26909;DHT22;14477;51.038;4.588;2023-02-23T18:09:57;12.00;99.90
26909;DHT22;14477;51.038;4.588;2023-02-23T18:12:23;12.00;99.90
26909;DHT22;14477;51.038;4.588;2023-02-23T18:14:49;12.00;99.90
26909;DHT22;14477;51.038;4.588;2023-02-23T18:17:15;11.90;99.90